Time;durP1;ratioP1;P1;durP2;ratioP2;P2;SDS_P1;SDS_P2;PMS_P1;PMS_P2;Temp;Humidity;BMP_temperature;BMP_pressure;BME280_temperature;BME280_humidity;BME280_pressure;Samples;Min_cycle;Max_cycle;Signal;HPM_P1;HPM_P2
2022/11/22 00:01:00;;;;;;;1.35;1.25;;;;;;;;;;1906578;75;26291;-45
2022/11/22 00:03:28;;;;;;;1.22;1.22;;;;;;;;;;1902288;74;26801;-56
2022/11/22 00:05:55;;;;;;;1.37;1.37;;;;;;;;;;1903894;75;26290;-51
2022/11/22 00:08:22;;;;;;;1.27;1.27;;;;;;;;;;1908733;75;26580;-51
2022/11/22 00:10:50;;;;;;;1.20;1.20;;;;;;;;;;1907531;75;26250;-50
2022/11/22 00:13:18;;;;;;;1.17;1.17;;;;;;;;;;1907054;75;26731;-44
2022/11/22 00:15:45;;;;;;;1.40;1.40;;;;;;;;;;1905744;74;26250;-55
2022/11/22 00:18:12;;;;;;;1.30;1.30;;;;;;;;;;1907401;75;26316;-48
2022/11/22 00:20:40;;;;;;;1.30;1.30;;;;;;;;;;1902162;74;26229;-44
2022/11/22 00:23:07;;;;;;;1.40;1.40;;;;;;;;;;1908146;75;26308;-50
2022/11/22 00:25:34;;;;;;;1.35;1.27;;;;;;;;;;1902193;74;26225;-50
2022/11/22 00:28:01;;;;;;;1.20;1.20;;;;;;;;;;1908164;75;26226;-52
2022/11/22 00:30:29;;;;;;;1.30;1.30;;;;;;;;;;1908619;75;26218;-50
2022/11/22 00:32:56;;;;;;;1.10;1.10;;;;;;;;;;1898569;75;26322;-45
2022/11/22 00:35:23;;;;;;;1.10;1.10;;;;;;;;;;1892494;75;26376;-45
2022/11/22 00:37:50;;;;;;;2.37;1.50;;;;;;;;;;1904189;74;26579;-63
2022/11/22 00:40:18;;;;;;;1.20;1.20;;;;;;;;;;1908828;75;26794;-43
2022/11/22 00:42:45;;;;;;;1.27;1.27;;;;;;;;;;1908181;74;26241;-46
2022/11/22 00:45:12;;;;;;;1.10;1.10;;;;;;;;;;1908678;74;26297;-47
2022/11/22 00:47:39;;;;;;;1.30;1.30;;;;;;;;;;1899238;74;26154;-44
2022/11/22 00:50:07;;;;;;;1.20;1.20;;;;;;;;;;1909248;75;26254;-54
2022/11/22 00:52:34;;;;;;;1.20;1.20;;;;;;;;;;1907728;74;26242;-49
2022/11/22 00:55:01;;;;;;;1.20;1.20;;;;;;;;;;1905377;75;26225;-44
2022/11/22 00:57:29;;;;;;;1.10;1.10;;;;;;;;;;1896190;74;26278;-58
2022/11/22 00:59:56;;;;;;;1.85;1.75;;;;;;;;;;1905435;75;26592;-55
2022/11/22 01:02:23;;;;;;;1.30;1.30;;;;;;;;;;1906808;75;26705;-49
2022/11/22 01:04:51;;;;;;;1.20;1.20;;;;;;;;;;1906315;75;27194;-51
2022/11/22 01:07:18;;;;;;;1.00;1.00;;;;;;;;;;1906976;75;26722;-53
2022/11/22 01:09:45;;;;;;;1.30;1.30;;;;;;;;;;1906304;74;27151;-51
2022/11/22 01:12:12;;;;;;;1.12;1.12;;;;;;;;;;1906841;75;26225;-59
2022/11/22 01:14:40;;;;;;;1.15;1.15;;;;;;;;;;1908956;74;26249;-52
2022/11/22 01:17:07;;;;;;;1.20;1.20;;;;;;;;;;1902182;75;26248;-52
2022/11/22 01:19:34;;;;;;;1.10;1.10;;;;;;;;;;1908963;74;26301;-52
2022/11/22 01:22:01;;;;;;;1.25;1.25;;;;;;;;;;1910847;74;26226;-48
2022/11/22 01:24:29;;;;;;;1.25;1.20;;;;;;;;;;1905546;75;27480;-53
2022/11/22 01:26:56;;;;;;;1.27;1.27;;;;;;;;;;1906334;74;27423;-46
2022/11/22 01:29:23;;;;;;;1.05;1.05;;;;;;;;;;1908659;75;26306;-47
2022/11/22 01:31:50;;;;;;;1.17;1.15;;;;;;;;;;1910897;74;26273;-56
2022/11/22 01:34:18;;;;;;;1.10;1.10;;;;;;;;;;1910045;74;26230;-55
2022/11/22 01:36:45;;;;;;;1.00;1.00;;;;;;;;;;1907977;75;26654;-49
2022/11/22 01:39:12;;;;;;;1.15;1.15;;;;;;;;;;1907513;75;26238;-50
2022/11/22 01:41:40;;;;;;;1.25;1.25;;;;;;;;;;1903333;74;26262;-44
2022/11/22 01:44:26;;;;;;;1.20;1.20;;;;;;;;;;1906331;75;26266;-49
2022/11/22 01:47:01;;;;;;;1.20;1.20;;;;;;;;;;1899800;74;27426;-48
2022/11/22 01:49:30;;;;;;;1.00;1.00;;;;;;;;;;1893713;75;26331;-47
2022/11/22 01:51:59;;;;;;;1.10;1.10;;;;;;;;;;1897898;75;26215;-47
2022/11/22 01:54:27;;;;;;;1.20;1.20;;;;;;;;;;1893445;74;26245;-50
2022/11/22 01:56:56;;;;;;;1.10;1.10;;;;;;;;;;1890883;75;26293;-55
2022/11/22 01:59:25;;;;;;;1.00;1.00;;;;;;;;;;1897808;75;26284;-56
2022/11/22 02:01:53;;;;;;;1.12;1.12;;;;;;;;;;1885520;75;26236;-43
2022/11/22 02:04:21;;;;;;;1.05;1.05;;;;;;;;;;1889291;74;26242;-44
2022/11/22 02:06:52;;;;;;;1.15;1.15;;;;;;;;;;1893655;74;26230;-47
2022/11/22 02:09:20;;;;;;;1.20;1.20;;;;;;;;;;1885895;75;26274;-46
2022/11/22 02:11:48;;;;;;;1.00;1.00;;;;;;;;;;1896699;74;26727;-58
2022/11/22 02:14:17;;;;;;;1.02;1.02;;;;;;;;;;1897835;74;26301;-48
2022/11/22 02:16:45;;;;;;;1.20;1.20;;;;;;;;;;1901286;74;26234;-43
2022/11/22 02:19:16;;;;;;;1.22;1.22;;;;;;;;;;1890576;75;26364;-53
2022/11/22 02:21:45;;;;;;;1.10;1.10;;;;;;;;;;1901232;75;26246;-53
2022/11/22 02:24:14;;;;;;;1.10;1.10;;;;;;;;;;1894721;75;26187;-56
2022/11/22 02:26:42;;;;;;;1.22;1.22;;;;;;;;;;1890041;74;26281;-59
2022/11/22 02:29:09;;;;;;;1.20;1.20;;;;;;;;;;1895892;75;26265;-52
2022/11/22 02:31:41;;;;;;;1.20;1.20;;;;;;;;;;1898628;75;26295;-50
2022/11/22 02:34:09;;;;;;;0.98;0.98;;;;;;;;;;1892969;75;26305;-48
2022/11/22 02:36:38;;;;;;;1.15;1.15;;;;;;;;;;1902171;74;26228;-53
2022/11/22 02:39:06;;;;;;;1.10;1.10;;;;;;;;;;1894836;74;26245;-48
2022/11/22 02:41:34;;;;;;;1.40;1.30;;;;;;;;;;1895493;74;26267;-59
2022/11/22 02:44:02;;;;;;;3.08;1.30;;;;;;;;;;1901409;74;26226;-50
2022/11/22 02:46:29;;;;;;;1.20;1.20;;;;;;;;;;1893540;74;26242;-57
2022/11/22 02:48:56;;;;;;;1.30;1.30;;;;;;;;;;1901397;74;26261;-47
2022/11/22 02:51:25;;;;;;;1.20;1.20;;;;;;;;;;1894000;75;26240;-52
2022/11/22 02:53:52;;;;;;;1.20;1.20;;;;;;;;;;1892586;74;26357;-59
2022/11/22 02:56:20;;;;;;;1.20;1.20;;;;;;;;;;1893684;74;26750;-53
2022/11/22 02:58:47;;;;;;;1.17;1.17;;;;;;;;;;1891964;74;26236;-46
2022/11/22 03:01:14;;;;;;;1.00;1.00;;;;;;;;;;1892762;75;26218;-51
2022/11/22 03:03:41;;;;;;;1.40;1.40;;;;;;;;;;1893748;75;26762;-55
2022/11/22 03:06:09;;;;;;;1.30;1.30;;;;;;;;;;1895528;75;26272;-53
2022/11/22 03:08:36;;;;;;;1.02;1.02;;;;;;;;;;1895623;74;26258;-51
2022/11/22 03:11:03;;;;;;;1.37;1.37;;;;;;;;;;1894312;74;26268;-55
2022/11/22 03:13:31;;;;;;;1.40;1.40;;;;;;;;;;1892602;75;26679;-58
2022/11/22 03:15:58;;;;;;;1.22;1.20;;;;;;;;;;1886907;74;26709;-60
2022/11/22 03:18:25;;;;;;;1.30;1.30;;;;;;;;;;1898166;74;26276;-48
2022/11/22 03:20:53;;;;;;;1.00;1.00;;;;;;;;;;1894677;74;27140;-48
2022/11/22 03:23:20;;;;;;;1.15;1.15;;;;;;;;;;1891846;75;26333;-56
2022/11/22 03:25:47;;;;;;;1.20;1.20;;;;;;;;;;1885262;74;26260;-54
2022/11/22 03:28:15;;;;;;;1.10;1.10;;;;;;;;;;1895034;74;26306;-56
2022/11/22 03:30:42;;;;;;;1.30;1.30;;;;;;;;;;1893690;74;26254;-54
2022/11/22 03:33:09;;;;;;;1.30;1.30;;;;;;;;;;1893824;74;26693;-46
2022/11/22 03:35:37;;;;;;;1.25;1.25;;;;;;;;;;1892089;75;26236;-44
2022/11/22 03:38:05;;;;;;;1.17;1.17;;;;;;;;;;1889592;74;26246;-54
2022/11/22 03:40:33;;;;;;;1.20;1.20;;;;;;;;;;1891692;75;26322;-51
2022/11/22 03:43:01;;;;;;;1.12;1.12;;;;;;;;;;1901156;74;26240;-45
2022/11/22 03:45:28;;;;;;;1.20;1.20;;;;;;;;;;1897196;74;26761;-48
2022/11/22 03:47:56;;;;;;;1.17;1.17;;;;;;;;;;1895141;75;26327;-50
2022/11/22 03:50:23;;;;;;;1.20;1.20;;;;;;;;;;1887981;75;26781;-57
2022/11/22 03:52:51;;;;;;;1.10;1.10;;;;;;;;;;1892423;74;26271;-49
2022/11/22 03:55:18;;;;;;;1.02;1.02;;;;;;;;;;1893111;75;26222;-45
2022/11/22 03:57:45;;;;;;;1.25;1.25;;;;;;;;;;1899563;75;26658;-49
2022/11/22 04:00:13;;;;;;;1.10;1.10;;;;;;;;;;1894716;75;26253;-57
2022/11/22 04:02:40;;;;;;;1.10;1.10;;;;;;;;;;1899575;75;26166;-50
2022/11/22 04:05:08;;;;;;;1.12;1.10;;;;;;;;;;1898937;74;26327;-46
2022/11/22 04:07:35;;;;;;;1.22;1.10;;;;;;;;;;1897682;75;26242;-54
2022/11/22 04:10:02;;;;;;;1.10;1.10;;;;;;;;;;1899449;75;26372;-54
2022/11/22 04:12:30;;;;;;;1.20;1.20;;;;;;;;;;1898237;75;26308;-57
2022/11/22 04:15:06;;;;;;;1.32;1.32;;;;;;;;;;1890078;74;26253;-49
2022/11/22 04:17:40;;;;;;;1.20;1.20;;;;;;;;;;1899021;75;26791;-55
2022/11/22 04:22:56;;;;;;;1.32;1.22;;;;;;;;;;1894344;75;26599;-48
2022/11/22 04:25:24;;;;;;;1.25;1.25;;;;;;;;;;1893158;74;26241;-55
2022/11/22 04:27:51;;;;;;;1.30;1.30;;;;;;;;;;1883430;75;26257;-48
2022/11/22 04:30:18;;;;;;;1.07;1.07;;;;;;;;;;1889124;75;26252;-44
2022/11/22 04:32:45;;;;;;;1.20;1.20;;;;;;;;;;1896833;75;26683;-45
2022/11/22 04:35:14;;;;;;;1.25;1.25;;;;;;;;;;1892828;75;26520;-47
2022/11/22 04:37:42;;;;;;;1.07;1.07;;;;;;;;;;1879500;74;26337;-60
2022/11/22 04:40:10;;;;;;;1.40;1.40;;;;;;;;;;1900817;75;26698;-47
2022/11/22 04:45:23;;;;;;;1.30;1.30;;;;;;;;;;1883476;75;26323;-55
2022/11/22 04:47:59;;;;;;;1.35;1.30;;;;;;;;;;1843779;75;26605;-48
2022/11/22 04:53:13;;;;;;;1.02;1.02;;;;;;;;;;1838501;77;26361;-52
2022/11/22 04:55:41;;;;;;;1.30;1.30;;;;;;;;;;1843746;77;26317;-58
2022/11/22 04:58:08;;;;;;;1.20;1.20;;;;;;;;;;1839858;75;26251;-53
2022/11/22 05:00:35;;;;;;;1.25;1.22;;;;;;;;;;1846220;77;26335;-49
2022/11/22 05:03:03;;;;;;;1.05;1.05;;;;;;;;;;1856874;77;26342;-45
2022/11/22 05:05:30;;;;;;;1.30;1.30;;;;;;;;;;1859801;76;26248;-48
2022/11/22 05:07:58;;;;;;;1.10;1.10;;;;;;;;;;1859154;76;26239;-56
2022/11/22 05:10:25;;;;;;;1.27;1.27;;;;;;;;;;1857555;75;26287;-54
2022/11/22 05:12:53;;;;;;;1.10;1.10;;;;;;;;;;1858524;77;26834;-43
2022/11/22 05:15:20;;;;;;;1.20;1.20;;;;;;;;;;1850259;76;26256;-52
2022/11/22 05:17:47;;;;;;;1.30;1.30;;;;;;;;;;1847560;77;26297;-58
2022/11/22 05:20:15;;;;;;;1.20;1.20;;;;;;;;;;1856631;75;26321;-48
2022/11/22 05:25:27;;;;;;;1.20;1.20;;;;;;;;;;1842451;77;26389;-62
2022/11/22 05:27:55;;;;;;;1.10;1.10;;;;;;;;;;1836873;77;26290;-52
2022/11/22 05:30:22;;;;;;;1.30;1.20;;;;;;;;;;1835042;77;26319;-49
2022/11/22 05:32:49;;;;;;;1.30;1.30;;;;;;;;;;1833300;75;26262;-48
2022/11/22 05:35:17;;;;;;;1.17;1.17;;;;;;;;;;1837740;77;26283;-50
2022/11/22 05:37:44;;;;;;;1.85;1.50;;;;;;;;;;1835231;77;26274;-55
2022/11/22 05:40:12;;;;;;;1.20;1.20;;;;;;;;;;1833379;77;26285;-55
2022/11/22 05:42:39;;;;;;;1.80;1.22;;;;;;;;;;1843740;75;26287;-54
2022/11/22 05:45:07;;;;;;;1.98;1.20;;;;;;;;;;1839496;76;26267;-55
2022/11/22 05:47:35;;;;;;;3.90;1.70;;;;;;;;;;1892584;75;26266;-52
2022/11/22 05:50:03;;;;;;;4.22;1.52;;;;;;;;;;1897666;74;26319;-58
2022/11/22 05:52:30;;;;;;;3.15;1.47;;;;;;;;;;1890310;74;26242;-49
2022/11/22 05:54:58;;;;;;;1.87;1.45;;;;;;;;;;1895375;74;26699;-44
2022/11/22 05:57:25;;;;;;;1.90;1.70;;;;;;;;;;1894014;74;26277;-43
2022/11/22 05:59:53;;;;;;;2.15;1.77;;;;;;;;;;1894516;75;26218;-54
2022/11/22 06:02:20;;;;;;;2.12;1.70;;;;;;;;;;1899285;75;26307;-51
2022/11/22 06:04:47;;;;;;;3.50;1.70;;;;;;;;;;1893691;74;26267;-59
2022/11/22 06:07:15;;;;;;;3.17;2.05;;;;;;;;;;1898132;75;27333;-50
2022/11/22 06:09:42;;;;;;;3.33;1.80;;;;;;;;;;1896801;75;26285;-44
2022/11/22 06:12:09;;;;;;;4.67;1.80;;;;;;;;;;1897340;74;26310;-56
2022/11/22 06:14:37;;;;;;;1.85;1.60;;;;;;;;;;1896314;74;26307;-50
2022/11/22 06:17:04;;;;;;;1.80;1.70;;;;;;;;;;1891445;75;26242;-48
2022/11/22 06:19:31;;;;;;;3.08;1.62;;;;;;;;;;1896873;75;26642;-50
2022/11/22 06:21:58;;;;;;;1.62;1.50;;;;;;;;;;1900694;75;26265;-43
2022/11/22 06:24:26;;;;;;;4.62;1.70;;;;;;;;;;1897705;74;26241;-56
2022/11/22 06:26:53;;;;;;;1.72;1.52;;;;;;;;;;1900691;74;26242;-45
2022/11/22 06:29:20;;;;;;;1.60;1.42;;;;;;;;;;1893540;75;26338;-44
2022/11/22 06:31:48;;;;;;;4.00;1.70;;;;;;;;;;1896788;75;26241;-47
2022/11/22 06:34:15;;;;;;;1.87;1.50;;;;;;;;;;1897494;75;26230;-55
2022/11/22 06:36:42;;;;;;;1.72;1.60;;;;;;;;;;1898423;74;26756;-46
2022/11/22 06:39:09;;;;;;;2.12;1.50;;;;;;;;;;1899104;75;26567;-49
2022/11/22 06:41:37;;;;;;;1.72;1.50;;;;;;;;;;1897906;75;26379;-48
2022/11/22 06:44:06;;;;;;;1.70;1.60;;;;;;;;;;1897403;74;26303;-44
2022/11/22 06:46:33;;;;;;;1.55;1.45;;;;;;;;;;1903564;74;27164;-51
2022/11/22 06:49:01;;;;;;;1.60;1.50;;;;;;;;;;1912744;73;26328;-49
2022/11/22 06:51:29;;;;;;;2.00;1.60;;;;;;;;;;1914498;74;26249;-49
2022/11/22 06:53:57;;;;;;;1.77;1.67;;;;;;;;;;1913501;73;26747;-51
2022/11/22 06:56:26;;;;;;;1.72;1.62;;;;;;;;;;1905946;73;26307;-58
2022/11/22 06:58:54;;;;;;;2.90;1.50;;;;;;;;;;1913965;73;26291;-58
2022/11/22 07:01:26;;;;;;;1.50;1.40;;;;;;;;;;1915101;74;26678;-47
2022/11/22 07:03:56;;;;;;;3.10;1.70;;;;;;;;;;1911721;73;26291;-50
2022/11/22 07:06:25;;;;;;;2.37;1.50;;;;;;;;;;1913994;74;26284;-43
2022/11/22 07:08:52;;;;;;;1.60;1.50;;;;;;;;;;1913496;74;26299;-49
2022/11/22 07:11:21;;;;;;;1.67;1.57;;;;;;;;;;1913496;74;26271;-56
2022/11/22 07:13:48;;;;;;;1.65;1.55;;;;;;;;;;1911826;74;26761;-44
2022/11/22 07:16:17;;;;;;;3.17;1.50;;;;;;;;;;1914368;73;26932;-53
2022/11/22 07:18:45;;;;;;;2.33;1.52;;;;;;;;;;1913467;75;26241;-50
2022/11/22 07:21:13;;;;;;;2.55;1.60;;;;;;;;;;1913959;73;26275;-47
2022/11/22 07:23:41;;;;;;;1.70;1.60;;;;;;;;;;1914422;73;26262;-59
2022/11/22 07:26:09;;;;;;;2.52;1.42;;;;;;;;;;1915202;75;26218;-50
2022/11/22 07:28:37;;;;;;;1.52;1.42;;;;;;;;;;1914065;75;26769;-45
2022/11/22 07:31:05;;;;;;;1.52;1.47;;;;;;;;;;1914600;75;26291;-50
2022/11/22 07:33:32;;;;;;;1.85;1.30;;;;;;;;;;1911559;73;26737;-48
2022/11/22 07:36:04;;;;;;;1.60;1.50;;;;;;;;;;1914599;75;26775;-54
2022/11/22 07:38:31;;;;;;;1.60;1.50;;;;;;;;;;1911637;75;26272;-43
2022/11/22 07:40:59;;;;;;;1.50;1.40;;;;;;;;;;1914979;75;26245;-49
2022/11/22 07:43:26;;;;;;;1.70;1.60;;;;;;;;;;1911915;73;26760;-44
2022/11/22 07:45:53;;;;;;;1.60;1.50;;;;;;;;;;1908178;73;26286;-58
2022/11/22 07:48:20;;;;;;;1.95;1.40;;;;;;;;;;1892962;75;26207;-50
2022/11/22 07:50:48;;;;;;;1.55;1.47;;;;;;;;;;1900471;75;26595;-45
2022/11/22 07:53:15;;;;;;;1.52;1.42;;;;;;;;;;1898259;75;26159;-54
2022/11/22 07:55:42;;;;;;;1.57;1.47;;;;;;;;;;1883800;74;26275;-49
2022/11/22 07:58:09;;;;;;;1.60;1.50;;;;;;;;;;1897434;75;26283;-54
2022/11/22 08:00:37;;;;;;;1.60;1.60;;;;;;;;;;1895139;75;26622;-52
2022/11/22 08:03:06;;;;;;;2.58;1.57;;;;;;;;;;1893029;75;26519;-45
2022/11/22 08:05:33;;;;;;;2.77;1.70;;;;;;;;;;1895237;74;26245;-48
2022/11/22 08:08:00;;;;;;;2.05;1.95;;;;;;;;;;1893953;75;26312;-57
2022/11/22 08:10:27;;;;;;;2.85;1.70;;;;;;;;;;1899439;74;26339;-55
2022/11/22 08:12:56;;;;;;;1.80;1.57;;;;;;;;;;1886677;75;27548;-47
2022/11/22 08:15:24;;;;;;;1.80;1.70;;;;;;;;;;1892630;74;26774;-51
2022/11/22 08:17:51;;;;;;;2.65;1.85;;;;;;;;;;1891786;75;26221;-47
2022/11/22 08:20:19;;;;;;;1.60;1.50;;;;;;;;;;1892589;75;26242;-56
2022/11/22 08:22:47;;;;;;;1.82;1.72;;;;;;;;;;1896514;74;26288;-50
2022/11/22 08:25:14;;;;;;;1.70;1.60;;;;;;;;;;1895491;75;26275;-54
2022/11/22 08:27:42;;;;;;;2.00;1.90;;;;;;;;;;1890342;74;26270;-55
2022/11/22 08:30:10;;;;;;;1.90;1.80;;;;;;;;;;1892573;75;26740;-48
2022/11/22 08:32:38;;;;;;;1.80;1.70;;;;;;;;;;1895922;75;26288;-57
2022/11/22 08:35:05;;;;;;;2.08;1.70;;;;;;;;;;1894083;74;27363;-45
2022/11/22 08:37:33;;;;;;;1.85;1.75;;;;;;;;;;1889796;74;26789;-49
2022/11/22 08:40:00;;;;;;;1.62;1.52;;;;;;;;;;1886418;74;26214;-48
2022/11/22 08:42:27;;;;;;;1.80;1.70;;;;;;;;;;1895819;74;26236;-45
2022/11/22 08:44:55;;;;;;;1.90;1.80;;;;;;;;;;1897399;75;26854;-57
2022/11/22 08:47:22;;;;;;;1.72;1.70;;;;;;;;;;1891232;75;26276;-45
2022/11/22 08:49:49;;;;;;;1.87;1.80;;;;;;;;;;1887798;74;27018;-56
2022/11/22 08:52:17;;;;;;;1.60;1.50;;;;;;;;;;1891154;74;26783;-54
2022/11/22 08:54:44;;;;;;;1.90;1.80;;;;;;;;;;1894631;74;26238;-57
2022/11/22 08:57:11;;;;;;;1.72;1.62;;;;;;;;;;1897780;75;26241;-59
2022/11/22 08:59:38;;;;;;;1.70;1.60;;;;;;;;;;1891385;74;26276;-57
2022/11/22 09:02:06;;;;;;;1.70;1.70;;;;;;;;;;1892633;74;26315;-57
2022/11/22 09:04:33;;;;;;;2.00;1.80;;;;;;;;;;1894644;74;26282;-57
2022/11/22 09:07:00;;;;;;;3.47;1.80;;;;;;;;;;1900714;74;26265;-59
2022/11/22 09:09:27;;;;;;;1.95;1.75;;;;;;;;;;1899476;74;26270;-57
2022/11/22 09:11:55;;;;;;;3.75;1.80;;;;;;;;;;1895077;74;26721;-59
2022/11/22 09:14:22;;;;;;;2.70;1.60;;;;;;;;;;1894937;74;26261;-61
2022/11/22 09:16:49;;;;;;;1.80;1.70;;;;;;;;;;1895598;74;26245;-59
2022/11/22 09:19:17;;;;;;;5.45;1.72;;;;;;;;;;1897417;74;26214;-58
2022/11/22 09:21:44;;;;;;;1.85;1.60;;;;;;;;;;1893761;74;26798;-63
2022/11/22 09:24:11;;;;;;;1.52;1.52;;;;;;;;;;1898952;74;26814;-57
2022/11/22 09:26:38;;;;;;;2.67;1.57;;;;;;;;;;1898114;74;26348;-61
2022/11/22 09:29:06;;;;;;;1.80;1.70;;;;;;;;;;1882280;74;28070;-61
2022/11/22 09:31:33;;;;;;;3.22;1.80;;;;;;;;;;1893582;74;26270;-59
2022/11/22 09:34:00;;;;;;;1.67;1.57;;;;;;;;;;1894487;74;26233;-57
2022/11/22 09:36:28;;;;;;;2.47;1.77;;;;;;;;;;1893004;74;26303;-52
2022/11/22 09:38:56;;;;;;;1.90;1.80;;;;;;;;;;1892355;74;26808;-58
2022/11/22 09:41:27;;;;;;;1.72;1.62;;;;;;;;;;1893076;74;26260;-58
2022/11/22 09:43:59;;;;;;;1.80;1.70;;;;;;;;;;1882292;74;26205;-60
2022/11/22 09:46:31;;;;;;;1.55;1.47;;;;;;;;;;1895904;74;26231;-60
2022/11/22 09:49:16;;;;;;;1.95;1.80;;;;;;;;;;1838065;73;26278;-60
2022/11/22 09:51:45;;;;;;;2.00;1.80;;;;;;;;;;1910030;73;26756;-58
2022/11/22 09:54:14;;;;;;;2.05;1.75;;;;;;;;;;1910356;73;26271;-58
2022/11/22 09:56:41;;;;;;;4.87;1.90;;;;;;;;;;1909132;73;26241;-55
2022/11/22 09:59:10;;;;;;;1.80;1.70;;;;;;;;;;1910636;73;26296;-53
2022/11/22 10:01:45;;;;;;;2.05;1.95;;;;;;;;;;1905384;73;26748;-54
2022/11/22 10:04:26;;;;;;;1.50;1.50;;;;;;;;;;1906049;73;26270;-58
2022/11/22 10:06:55;;;;;;;1.95;1.85;;;;;;;;;;1911723;73;26281;-59
2022/11/22 10:09:27;;;;;;;1.80;1.70;;;;;;;;;;1910399;73;26296;-58
2022/11/22 10:12:02;;;;;;;1.90;1.80;;;;;;;;;;1911191;73;26580;-57
2022/11/22 10:14:46;;;;;;;1.60;1.60;;;;;;;;;;1845534;73;26965;-60
2022/11/22 10:17:31;;;;;;;1.90;1.80;;;;;;;;;;1911945;73;26269;-54
2022/11/22 10:20:00;;;;;;;1.90;1.85;;;;;;;;;;1909524;73;26521;-56
2022/11/22 10:22:29;;;;;;;1.80;1.70;;;;;;;;;;1904871;73;26278;-59
2022/11/22 10:24:58;;;;;;;1.77;1.77;;;;;;;;;;1910264;73;26263;-51
2022/11/22 10:27:27;;;;;;;1.95;1.85;;;;;;;;;;1911995;73;26316;-58
2022/11/22 10:29:56;;;;;;;1.82;1.80;;;;;;;;;;1906447;73;26242;-60
2022/11/22 10:32:43;;;;;;;2.52;2.00;;;;;;;;;;1914716;73;26346;-58
2022/11/22 10:35:15;;;;;;;1.82;1.72;;;;;;;;;;1905226;73;26249;-60
2022/11/22 10:37:50;;;;;;;1.87;1.87;;;;;;;;;;1908482;73;26272;-59
2022/11/22 10:40:19;;;;;;;1.67;1.67;;;;;;;;;;1903086;73;27472;-60
2022/11/22 10:43:05;;;;;;;1.90;1.80;;;;;;;;;;1904338;73;26257;-61
2022/11/22 10:45:36;;;;;;;1.60;1.60;;;;;;;;;;1913119;73;26830;-58
2022/11/22 10:48:14;;;;;;;1.70;1.70;;;;;;;;;;1836228;73;26930;-56
2022/11/22 10:50:49;;;;;;;2.02;1.92;;;;;;;;;;1899985;74;26736;-68
2022/11/22 10:53:27;;;;;;;2.20;2.10;;;;;;;;;;1894617;74;26218;-57
2022/11/22 10:55:56;;;;;;;1.67;1.67;;;;;;;;;;1895370;74;26303;-62
2022/11/22 10:58:25;;;;;;;1.65;1.65;;;;;;;;;;1900808;74;27224;-56
2022/11/22 11:00:57;;;;;;;1.95;1.85;;;;;;;;;;1897120;74;26284;-57
2022/11/22 11:03:32;;;;;;;2.00;1.90;;;;;;;;;;1891314;74;26257;-58
2022/11/22 11:06:06;;;;;;;1.50;1.50;;;;;;;;;;1893688;74;26273;-57
2022/11/22 11:08:44;;;;;;;2.00;1.90;;;;;;;;;;1894777;74;26305;-56
2022/11/22 11:11:13;;;;;;;1.80;1.70;;;;;;;;;;1897655;74;26297;-60
2022/11/22 11:13:48;;;;;;;1.90;1.80;;;;;;;;;;1897052;74;26242;-57
2022/11/22 11:16:17;;;;;;;1.85;1.75;;;;;;;;;;1896601;74;26350;-53
2022/11/22 11:18:48;;;;;;;1.72;1.67;;;;;;;;;;1896540;74;26370;-54
2022/11/22 11:21:15;;;;;;;1.80;1.70;;;;;;;;;;1896895;73;26224;-55
2022/11/22 11:23:43;;;;;;;1.85;1.82;;;;;;;;;;1901899;74;27172;-50
2022/11/22 11:26:20;;;;;;;1.80;1.80;;;;;;;;;;1895562;74;26241;-56
2022/11/22 11:28:48;;;;;;;17.67;1.98;;;;;;;;;;1897481;74;26251;-58
2022/11/22 11:31:17;;;;;;;2.22;2.08;;;;;;;;;;1893539;74;26480;-59
2022/11/22 11:33:45;;;;;;;1.98;1.87;;;;;;;;;;1897324;74;26277;-59
2022/11/22 11:36:17;;;;;;;2.25;2.15;;;;;;;;;;1891559;74;26371;-59
2022/11/22 11:38:47;;;;;;;2.00;1.80;;;;;;;;;;1896280;74;26278;-59
2022/11/22 11:41:22;;;;;;;2.08;1.87;;;;;;;;;;1895624;74;26869;-59
2022/11/22 11:43:49;;;;;;;2.02;1.92;;;;;;;;;;1894428;74;26621;-59
2022/11/22 11:46:24;;;;;;;2.00;1.90;;;;;;;;;;1898887;74;26335;-58
2022/11/22 11:48:53;;;;;;;2.10;2.00;;;;;;;;;;1893893;73;27473;-58
2022/11/22 11:51:22;;;;;;;1.90;1.80;;;;;;;;;;1912970;73;26268;-59
2022/11/22 11:53:57;;;;;;;2.55;1.92;;;;;;;;;;1907096;73;26285;-60
2022/11/22 11:56:31;;;;;;;1.85;1.85;;;;;;;;;;1903797;73;26241;-58
2022/11/22 11:58:59;;;;;;;3.05;1.75;;;;;;;;;;1908055;73;26273;-59
2022/11/22 12:01:27;;;;;;;2.08;1.98;;;;;;;;;;1913272;73;26246;-59
2022/11/22 12:03:58;;;;;;;1.87;1.80;;;;;;;;;;1907758;73;26322;-59
2022/11/22 12:06:29;;;;;;;1.80;1.80;;;;;;;;;;1911735;73;27259;-58
2022/11/22 12:08:57;;;;;;;1.98;1.87;;;;;;;;;;1907943;73;26366;-60
2022/11/22 12:11:32;;;;;;;2.20;2.10;;;;;;;;;;1910858;73;26300;-53
2022/11/22 12:14:02;;;;;;;1.90;1.80;;;;;;;;;;1911676;73;26254;-54
2022/11/22 12:16:31;;;;;;;2.08;1.98;;;;;;;;;;1908821;73;26319;-56
2022/11/22 12:19:09;;;;;;;1.95;1.85;;;;;;;;;;1901627;73;27071;-55
2022/11/22 12:21:38;;;;;;;1.98;1.87;;;;;;;;;;1907546;73;26336;-58
2022/11/22 12:24:25;;;;;;;3.27;2.05;;;;;;;;;;1904817;73;26296;-58
2022/11/22 12:26:54;;;;;;;2.12;2.02;;;;;;;;;;1910882;73;26327;-58
2022/11/22 12:29:22;;;;;;;1.65;1.60;;;;;;;;;;1905097;73;26433;-59
2022/11/22 12:31:57;;;;;;;1.70;1.60;;;;;;;;;;1910842;73;27557;-58
2022/11/22 12:34:26;;;;;;;2.00;1.90;;;;;;;;;;1900861;73;27087;-62
2022/11/22 12:36:57;;;;;;;2.27;1.92;;;;;;;;;;1903165;73;26804;-61
2022/11/22 12:39:26;;;;;;;1.90;1.80;;;;;;;;;;1907344;73;26387;-60
2022/11/22 12:41:55;;;;;;;1.92;1.82;;;;;;;;;;1903496;73;26221;-59
2022/11/22 12:44:23;;;;;;;2.00;1.90;;;;;;;;;;1902711;73;26247;-61
2022/11/22 12:46:51;;;;;;;2.12;2.02;;;;;;;;;;1906829;73;26679;-58
2022/11/22 12:49:20;;;;;;;2.10;2.00;;;;;;;;;;1901792;73;27520;-58
2022/11/22 12:51:55;;;;;;;2.10;2.00;;;;;;;;;;1886444;75;26269;-60
2022/11/22 12:54:24;;;;;;;2.08;1.98;;;;;;;;;;1886782;75;26244;-59
2022/11/22 12:56:53;;;;;;;2.00;1.90;;;;;;;;;;1890699;75;26273;-59
2022/11/22 12:59:21;;;;;;;2.00;1.90;;;;;;;;;;1887020;75;26350;-60
2022/11/22 13:01:50;;;;;;;1.98;1.87;;;;;;;;;;1887389;75;26303;-60
2022/11/22 13:04:19;;;;;;;2.02;1.95;;;;;;;;;;1889138;75;26589;-60
2022/11/22 13:06:51;;;;;;;1.85;1.80;;;;;;;;;;1886134;75;26298;-60
2022/11/22 13:09:20;;;;;;;2.02;1.92;;;;;;;;;;1884778;75;26362;-59
2022/11/22 13:12:01;;;;;;;1.85;1.75;;;;;;;;;;1889978;75;26295;-60
2022/11/22 13:14:29;;;;;;;1.92;1.82;;;;;;;;;;1888494;74;26277;-60
2022/11/22 13:16:57;;;;;;;1.90;1.80;;;;;;;;;;1888130;75;26315;-59
2022/11/22 13:19:25;;;;;;;2.17;2.08;;;;;;;;;;1887104;75;26263;-59
2022/11/22 13:22:11;;;;;;;1.77;1.77;;;;;;;;;;1887277;75;26342;-60
2022/11/22 13:24:56;;;;;;;2.02;1.92;;;;;;;;;;1888432;74;26257;-52
2022/11/22 13:27:31;;;;;;;2.00;1.90;;;;;;;;;;1886165;75;26678;-60
2022/11/22 13:30:00;;;;;;;2.25;2.05;;;;;;;;;;1886820;75;26718;-59
2022/11/22 13:32:29;;;;;;;2.00;1.90;;;;;;;;;;1885384;75;26285;-60
2022/11/22 13:35:13;;;;;;;2.20;2.10;;;;;;;;;;1889851;75;26989;-59
2022/11/22 13:37:42;;;;;;;2.55;2.00;;;;;;;;;;1890776;75;26285;-60
2022/11/22 13:40:16;;;;;;;2.33;1.92;;;;;;;;;;1882146;75;26315;-58
2022/11/22 13:42:44;;;;;;;2.27;2.17;;;;;;;;;;1883968;75;27384;-61
2022/11/22 13:45:22;;;;;;;2.20;2.00;;;;;;;;;;1887272;75;26218;-57
2022/11/22 13:47:49;;;;;;;2.00;1.90;;;;;;;;;;1808115;74;26413;-61
2022/11/22 13:50:35;;;;;;;2.10;2.00;;;;;;;;;;1792655;79;26304;-59
2022/11/22 13:53:04;;;;;;;2.12;2.02;;;;;;;;;;1795168;78;26280;-59
2022/11/22 13:55:32;;;;;;;1.98;1.87;;;;;;;;;;1782016;79;26289;-58
2022/11/22 13:58:18;;;;;;;2.02;1.92;;;;;;;;;;1791435;79;26323;-58
2022/11/22 14:00:45;;;;;;;1.90;1.80;;;;;;;;;;1792382;79;26275;-59
2022/11/22 14:03:16;;;;;;;3.25;2.30;;;;;;;;;;1788257;79;26240;-57
2022/11/22 14:05:45;;;;;;;2.27;2.02;;;;;;;;;;1790336;79;26273;-56
2022/11/22 14:08:33;;;;;;;2.10;2.00;;;;;;;;;;1788271;79;26716;-54
2022/11/22 14:11:01;;;;;;;2.40;2.00;;;;;;;;;;1791527;79;26358;-54
2022/11/22 14:13:41;;;;;;;2.20;2.10;;;;;;;;;;1791918;79;26330;-56
2022/11/22 14:16:13;;;;;;;2.10;2.00;;;;;;;;;;1789544;79;26555;-59
2022/11/22 14:18:45;;;;;;;2.10;2.00;;;;;;;;;;1789640;79;26327;-60
2022/11/22 14:21:14;;;;;;;1.70;1.70;;;;;;;;;;1789485;79;26297;-61
2022/11/22 14:23:58;;;;;;;2.20;2.10;;;;;;;;;;1788494;78;26272;-59
2022/11/22 14:26:40;;;;;;;2.22;2.10;;;;;;;;;;1788094;79;27527;-58
2022/11/22 14:29:09;;;;;;;2.15;2.05;;;;;;;;;;1789989;79;26769;-57
2022/11/22 14:31:36;;;;;;;2.20;2.10;;;;;;;;;;1792305;79;27006;-55
2022/11/22 14:34:17;;;;;;;2.20;2.00;;;;;;;;;;1791894;79;26299;-58
2022/11/22 14:36:45;;;;;;;2.30;2.10;;;;;;;;;;1790026;79;27185;-58
2022/11/22 14:39:30;;;;;;;2.10;2.00;;;;;;;;;;1790146;79;26297;-54
2022/11/22 14:41:58;;;;;;;2.00;1.90;;;;;;;;;;1791460;79;26362;-58
2022/11/22 14:44:29;;;;;;;2.12;2.02;;;;;;;;;;1790983;79;27068;-59
2022/11/22 14:47:04;;;;;;;2.15;2.05;;;;;;;;;;1797997;77;27143;-51
2022/11/22 14:49:33;;;;;;;1.98;1.87;;;;;;;;;;1833630;77;26806;-54
2022/11/22 14:52:01;;;;;;;2.33;2.12;;;;;;;;;;1828012;77;27489;-57
2022/11/22 14:54:30;;;;;;;2.25;2.15;;;;;;;;;;1833066;77;26346;-54
2022/11/22 14:56:58;;;;;;;3.30;2.05;;;;;;;;;;1829749;76;26317;-50
2022/11/22 14:59:36;;;;;;;1.90;1.80;;;;;;;;;;1831714;77;26240;-57
2022/11/22 15:02:17;;;;;;;2.12;1.95;;;;;;;;;;1828604;77;26307;-50
2022/11/22 15:04:55;;;;;;;2.55;1.70;;;;;;;;;;1825974;77;26364;-57
2022/11/22 15:07:41;;;;;;;2.15;2.05;;;;;;;;;;1830946;77;27165;-60